Guy, Arkansas
Current Conditions -  °F | °C
As of 5:58 AM on Friday 24 Oct 2014 (Local Time) from KLRF Reporting Station
Clear Clear  
Wind Chill: 44°   Ceiling: Unl
Heat Index: 44°   Visibility: 10mi
Dew Point: 43°   Wind: 1mph
Humidity: 95%   Direction: 250°WSW
Pressure: 30.15"   Gusts: NA
Location:  35.33°N, 92.33°W
Report Text: KLRF 241058Z AUTO 25001KT 10SM CLR 07/06 A3015 RMK AO2 SLP213 T00680061
Loading
Personal Weather Stations






























Interactive Weather Map
Tropical Storm Tracking
New forecast layout! Learn more

10-Day Weather Forecast

Advertisements
Track Severe Weather on mobile